Gambrills, MD (21054)

8:39 PM EST on December 02, 2016 (GMT -0500)
The Preserve at Severn Run | | Change Station

Elev 171 ft 39.06 °N, 76.66 °W | Updated 1 minute ago

Overcast
Overcast
42.7 °F
Feels Like 43 °F
N
1.0
Wind Variable Wind from NNE
Gusts 4.0 mph

Today
High -- | Low -- °F
--% Chance of Precip.
Yesterday
High -- | Low -- °F
Precip. -- in
Pressure 30.12 in
Visibility 10.0 miles
Clouds Scattered Clouds 4700 ft
Overcast 5500 ft
Windchill 43 °F
Dew Point 29 °F
Humidity 59%
Rainfall 0.00 in
Snow Depth Not available.
7:08 AM 4:44 PM
Waxing Crescent, 11% visible
METAR KFME 030130Z AUTO 26004KT 10SM SCT047 OVC055 06/M02 A3012 RMK AO1
Pressure 30.12 in
Visibility 10.0 miles
Clouds Scattered Clouds 4700 ft
Overcast 5500 ft
Windchill 43 °F
Dew Point 29 °F
Humidity 59%
Rainfall 0.00 in
Snow Depth Not available.
7:08 AM 4:44 PM
Waxing Crescent, 11% visible
METAR KFME 030130Z AUTO 26004KT 10SM SCT047 OVC055 06/M02 A3012 RMK AO1

10-Day Weather Forecast

Almanac

Astronomy

Dec. 02, 2016 Rise Set
Actual Time
Civil Twilight
Nautical Twilight
Astronomical Twilight
Moon
Length of Visible Light
Length of Day
Tomorrow will be .
, % of the Moon is Illuminated

Today's Extremes

State Highs State Lows

Community

WunderPhotos

Upload Photos

1,955,390 photos uploaded!

WunderBlog® & News

Nearby

Air Quality

  Air Quality AQ Index Pollutant
Not available.

Snow Depth

Station Depth Elevation

Earthquake Activity

City Distance Mag. Time & Date
Minimum magnitude displayed is 2.5.

Coastal Water Temperatures

Place Temperature

Stations

Nearby Weather Stations

Station Location Temp. Windchill Dew Point Humidity Wind Precip. Elev Updated Type
                   

Watches & Warnings

There are currently no watches in effect.